Time;durP1;ratioP1;P1;durP2;ratioP2;P2;SDS_P1;SDS_P2;PMS_P1;PMS_P2;Temp;Humidity;BMP_temperature;BMP_pressure;BME280_temperature;BME280_humidity;BME280_pressure;Samples;Min_cycle;Max_cycle;Signal;HPM_P1;HPM_P2
2023/10/05 00:03:51;;;;;;;5.43;3.37;;;;;;;12.25;52.86;100696.25;10403838;28;20231;-70
2023/10/05 00:08:56;;;;;;;6.53;3.50;;;;;;;12.28;52.69;100681.63;10382348;28;20233;-70
2023/10/05 00:13:59;;;;;;;3.63;2.53;;;;;;;11.91;51.63;100752.81;10393905;28;20229;-70
2023/10/05 00:19:02;;;;;;;3.13;2.50;;;;;;;10.36;54.79;100810.31;10393707;28;20310;-70
2023/10/05 00:24:08;;;;;;;6.63;3.17;;;;;;;10.29;55.36;100730.69;10391298;28;20715;-70
2023/10/05 00:39:22;;;;;;;5.70;3.10;;;;;;;11.03;54.49;100647.94;10384968;28;20239;-70
2023/10/05 00:44:24;;;;;;;3.37;3.03;;;;;;;11.36;54.52;100620.34;10393231;28;20239;-70
2023/10/05 00:49:30;;;;;;;4.27;3.20;;;;;;;11.21;54.52;100631.72;10389200;28;20233;-70
2023/10/05 00:54:34;;;;;;;4.97;3.00;;;;;;;11.35;53.59;100697.19;10395390;28;20243;-70
2023/10/05 00:59:36;;;;;;;4.63;3.20;;;;;;;11.50;53.33;100654.47;10389325;28;20352;-70
2023/10/05 01:04:53;;;;;;;4.73;3.43;;;;;;;11.55;53.60;100649.44;10392325;28;20339;-70
2023/10/05 01:15:06;;;;;;;4.87;3.67;;;;;;;10.66;54.84;100724.16;10394930;28;20243;-70
2023/10/05 01:20:12;;;;;;;4.87;3.40;;;;;;;11.15;54.87;100635.06;10387410;28;20239;-69
2023/10/05 01:25:14;;;;;;;6.50;4.10;;;;;;;10.93;54.46;100692.78;10390520;28;20627;-70
2023/10/05 01:30:17;;;;;;;7.07;3.97;;;;;;;11.08;53.93;100647.44;10393116;28;20228;-71
2023/10/05 01:35:18;;;;;;;6.50;3.37;;;;;;;11.36;53.56;100629.19;10391985;28;20238;-70
2023/10/05 01:45:28;;;;;;;5.37;3.30;;;;;;;10.84;53.49;100693.78;10388626;28;20341;-70
2023/10/05 01:50:32;;;;;;;6.23;3.33;;;;;;;10.76;53.84;100680.38;10386017;28;20239;-70
2023/10/05 01:55:34;;;;;;;4.20;3.20;;;;;;;10.83;54.08;100666.19;10391569;28;20244;-69
2023/10/05 02:00:38;;;;;;;5.53;3.33;;;;;;;10.27;54.33;100732.69;10387757;28;20241;-68
2023/10/05 02:05:41;;;;;;;3.73;2.97;;;;;;;10.60;53.92;100687.34;10389119;28;20233;-69
2023/10/05 02:10:46;;;;;;;6.80;3.57;;;;;;;10.82;53.70;100637.72;10386690;28;20250;-69
2023/10/05 02:15:53;;;;;;;3.77;3.00;;;;;;;10.89;53.09;100686.09;10393570;28;20673;-69
2023/10/05 02:21:07;;;;;;;5.83;2.93;;;;;;;10.88;53.37;100657.63;10385995;28;20243;-68
2023/10/05 02:27:09;;;;;;;4.20;2.77;;;;;;;10.78;53.66;100652.47;10388310;28;20239;-67
2023/10/05 02:31:50;;;;;;;4.67;3.77;;;;;;;10.58;53.55;100696.50;10379329;28;20248;-68
2023/10/05 02:36:54;;;;;;;7.00;3.50;;;;;;;11.45;52.35;100595.19;10388909;28;20746;-69
2023/10/05 02:41:56;;;;;;;7.73;3.73;;;;;;;10.91;53.00;100699.31;10386029;28;20577;-67
2023/10/05 02:46:59;;;;;;;6.93;3.60;;;;;;;11.18;52.31;100658.00;10390901;28;20260;-67
2023/10/05 02:52:04;;;;;;;3.93;2.87;;;;;;;12.02;50.67;100579.97;10384721;28;20232;-67
2023/10/05 02:57:11;;;;;;;5.80;3.37;;;;;;;11.10;52.13;100698.19;10389396;28;20233;-67
2023/10/05 03:02:16;;;;;;;8.07;3.17;;;;;;;11.70;51.67;100625.47;10397987;28;20236;-70
2023/10/05 03:07:19;;;;;;;4.97;3.10;;;;;;;11.06;52.50;100719.94;10393265;28;20610;-67
2023/10/05 03:12:21;;;;;;;6.90;3.60;;;;;;;11.08;52.47;100711.72;10384999;28;20225;-67
2023/10/05 03:17:26;;;;;;;4.60;3.17;;;;;;;11.07;52.50;100672.59;10391298;28;20335;-66
2023/10/05 03:22:28;;;;;;;7.20;3.23;;;;;;;10.86;52.38;100718.56;10383218;28;20665;-67
2023/10/05 03:27:30;;;;;;;4.63;2.97;;;;;;;10.31;53.33;100752.78;10384109;28;20294;-67
2023/10/05 03:32:35;;;;;;;6.40;3.10;;;;;;;10.98;52.53;100686.94;10383375;28;20255;-68
2023/10/05 03:37:41;;;;;;;5.87;3.20;;;;;;;10.97;52.32;100693.31;10351999;28;20226;-65
2023/10/05 03:42:46;;;;;;;6.33;3.40;;;;;;;11.02;52.04;100691.00;10374924;28;20232;-66
2023/10/05 03:47:49;;;;;;;7.13;3.83;;;;;;;10.40;53.03;100784.94;10356374;28;20594;-66
2023/10/05 03:52:51;;;;;;;5.77;3.40;;;;;;;11.10;52.07;100704.38;10352948;28;20607;-68
2023/10/05 03:57:52;;;;;;;7.20;3.63;;;;;;;10.66;52.54;100766.13;10346456;28;20232;-67
2023/10/05 04:02:54;;;;;;;8.33;3.10;;;;;;;10.81;53.02;100727.06;10346461;28;20374;-68
2023/10/05 04:08:10;;;;;;;6.13;3.70;;;;;;;10.64;52.98;100766.28;10353131;28;20240;-71
2023/10/05 04:13:24;;;;;;;5.23;3.53;;;;;;;10.52;53.80;100724.78;10353267;28;20237;-69
2023/10/05 04:18:26;;;;;;;6.97;3.60;;;;;;;9.89;54.61;100792.78;10392285;28;20666;-68
2023/10/05 04:23:28;;;;;;;4.70;3.30;;;;;;;9.99;55.36;100694.59;10392761;28;20249;-68
2023/10/05 04:28:32;;;;;;;4.87;3.30;;;;;;;10.50;53.74;100737.47;10392541;28;20383;-69
2023/10/05 04:33:34;;;;;;;8.13;3.70;;;;;;;10.25;54.19;100729.31;10388456;28;20605;-68
2023/10/05 04:38:36;;;;;;;7.60;3.67;;;;;;;10.07;54.60;100750.81;10406006;28;20625;-68
2023/10/05 04:43:39;;;;;;;5.37;3.43;;;;;;;10.40;54.43;100702.81;10388396;28;20243;-71
2023/10/05 04:48:48;;;;;;;5.10;3.60;;;;;;;10.66;53.85;100689.38;10387032;28;20228;-70
2023/10/05 04:53:54;;;;;;;5.13;4.10;;;;;;;10.33;54.09;100788.22;10389112;28;20244;-70
2023/10/05 05:10:35;;;;;;;9.33;4.30;;;;;;;10.61;54.99;100576.59;10489696;28;20313;-70
2023/10/05 05:15:38;;;;;;;5.30;3.90;;;;;;;10.43;55.22;100618.72;10494577;28;20670;-70
2023/10/05 05:20:40;;;;;;;9.57;4.77;;;;;;;9.96;55.53;100695.75;10472744;28;20227;-69
2023/10/05 05:25:44;;;;;;;6.63;3.80;;;;;;;9.40;57.25;100695.16;10450265;28;20297;-70
2023/10/05 05:30:47;;;;;;;5.00;3.80;;;;;;;9.16;56.49;100810.63;10449411;28;20219;-70
2023/10/05 05:35:49;;;;;;;6.70;4.20;;;;;;;9.19;58.17;100663.41;10456561;28;20660;-69
2023/10/05 05:40:53;;;;;;;5.33;3.90;;;;;;;9.41;57.20;100720.03;10462409;28;20326;-69
2023/10/05 05:45:55;;;;;;;4.90;4.13;;;;;;;8.69;57.60;100826.69;10434497;28;20307;-69
2023/10/05 05:50:57;;;;;;;8.50;4.20;;;;;;;9.54;56.59;100728.50;10430278;28;20254;-69
2023/10/05 05:56:01;;;;;;;6.80;4.10;;;;;;;10.00;56.01;100648.13;10455113;28;20242;-69
2023/10/05 06:01:03;;;;;;;5.30;3.90;;;;;;;9.81;56.42;100669.72;10455154;28;20330;-70
2023/10/05 06:06:06;;;;;;;10.27;4.43;;;;;;;8.56;58.94;100796.84;10452414;28;20280;-70
2023/10/05 06:11:08;;;;;;;8.43;4.23;;;;;;;9.68;56.11;100744.97;10451913;28;20601;-69
2023/10/05 06:16:10;;;;;;;6.13;3.73;;;;;;;10.19;55.59;100670.28;10421334;28;20252;-69
2023/10/05 06:21:12;;;;;;;6.47;3.87;;;;;;;10.26;55.14;100700.72;10406956;28;20399;-70
2023/10/05 06:26:14;;;;;;;5.47;4.30;;;;;;;10.58;54.37;100766.97;10419544;28;20282;-70
2023/10/05 06:31:16;;;;;;;6.83;4.20;;;;;;;11.03;53.49;100708.72;10401018;28;20232;-69
2023/10/05 06:36:18;;;;;;;7.63;4.10;;;;;;;10.70;53.86;100805.00;10444038;28;20262;-70
2023/10/05 06:41:27;;;;;;;7.83;3.93;;;;;;;10.64;54.46;100806.44;10431034;28;20302;-69
2023/10/05 06:46:29;;;;;;;5.57;3.70;;;;;;;10.40;55.65;100817.03;10417089;28;20355;-69
2023/10/05 06:51:31;;;;;;;8.03;4.07;;;;;;;10.46;56.06;100768.22;10417130;28;20328;-69
2023/10/05 06:56:33;;;;;;;5.50;4.20;;;;;;;10.56;55.81;100776.97;10421001;28;20691;-70
2023/10/05 07:01:34;;;;;;;5.30;4.17;;;;;;;11.22;54.21;100694.16;10399041;28;20244;-70
2023/10/05 07:06:36;;;;;;;5.57;3.70;;;;;;;10.97;55.03;100757.59;10414219;28;20264;-69
2023/10/05 07:11:38;;;;;;;7.87;3.93;;;;;;;9.85;58.04;100860.91;10414936;28;20307;-70
2023/10/05 07:16:40;;;;;;;7.23;4.60;;;;;;;10.28;57.33;100843.22;10420022;28;20235;-70
2023/10/05 07:21:41;;;;;;;4.87;4.20;;;;;;;10.57;56.92;100793.88;10444959;28;20235;-69
2023/10/05 07:26:43;;;;;;;8.37;4.83;;;;;;;10.51;57.23;100814.06;10439404;28;20223;-69
2023/10/05 07:31:45;;;;;;;5.47;4.10;;;;;;;10.65;57.80;100780.53;10453819;28;20743;-69
2023/10/05 07:36:47;;;;;;;5.63;4.23;;;;;;;11.81;55.06;100777.97;10458081;28;20289;-69
2023/10/05 07:41:49;;;;;;;8.17;4.87;;;;;;;11.09;55.94;100940.28;10456757;28;20223;-69
2023/10/05 07:46:51;;;;;;;9.60;4.70;;;;;;;10.79;57.25;100939.75;10457359;28;20642;-69
2023/10/05 07:51:53;;;;;;;6.37;4.90;;;;;;;11.83;55.34;100823.41;10453364;28;20230;-69
2023/10/05 07:56:54;;;;;;;7.40;4.50;;;;;;;11.43;56.05;100945.59;10456086;28;20644;-69
2023/10/05 08:01:57;;;;;;;9.80;4.30;;;;;;;11.64;56.30;100896.94;10453158;28;20338;-68
2023/10/05 08:07:02;;;;;;;4.87;4.17;;;;;;;12.51;54.28;100791.81;10456544;28;20322;-69
2023/10/05 08:12:04;;;;;;;6.80;4.67;;;;;;;12.06;54.93;100963.06;10437542;28;20662;-69
2023/10/05 08:17:06;;;;;;;7.73;4.50;;;;;;;12.06;55.74;100919.28;10421443;28;20231;-68
2023/10/05 08:22:09;;;;;;;4.73;4.23;;;;;;;12.73;53.93;100847.44;10449102;28;20256;-70
2023/10/05 08:27:14;;;;;;;5.67;3.73;;;;;;;12.69;54.23;100918.63;10454137;28;20309;-70
2023/10/05 08:32:16;;;;;;;5.60;3.90;;;;;;;11.46;55.86;101033.75;10419358;28;20232;-69
2023/10/05 08:37:22;;;;;;;5.67;4.10;;;;;;;11.92;55.25;100956.50;10413152;28;20221;-69
2023/10/05 08:42:26;;;;;;;12.43;4.70;;;;;;;13.23;52.98;100831.94;10431496;28;20603;-69
2023/10/05 08:47:28;;;;;;;12.83;4.10;;;;;;;12.74;54.07;100910.06;10451835;28;20286;-69
2023/10/05 08:52:35;;;;;;;6.27;3.37;;;;;;;12.18;54.89;100988.56;10445950;28;20284;-69
2023/10/05 08:57:37;;;;;;;8.20;4.10;;;;;;;12.81;53.75;100905.66;10452337;28;20254;-69
2023/10/05 09:02:40;;;;;;;5.33;3.90;;;;;;;12.92;53.83;100942.06;10453000;28;20227;-69
2023/10/05 09:07:43;;;;;;;6.50;4.03;;;;;;;12.81;53.88;100924.47;10413222;28;20323;-69
2023/10/05 09:12:58;;;;;;;8.13;4.27;;;;;;;13.27;53.81;100945.31;10453162;28;20289;-69
2023/10/05 09:18:17;;;;;;;7.47;4.00;;;;;;;13.84;52.58;100953.13;10451496;28;20251;-68
2023/10/05 09:23:24;;;;;;;8.57;4.20;;;;;;;13.79;52.99;100966.28;10409993;28;20240;-69
2023/10/05 09:28:32;;;;;;;8.00;3.77;;;;;;;14.43;52.21;100908.63;10410199;28;20212;-70
2023/10/05 09:33:46;;;;;;;10.23;4.70;;;;;;;14.12;51.94;100998.41;10411712;28;20234;-70
2023/10/05 09:38:49;;;;;;;9.37;4.77;;;;;;;14.83;50.73;100989.25;10450111;28;20262;-70
2023/10/05 09:44:04;;;;;;;9.27;4.33;;;;;;;14.87;50.90;100980.63;10453180;28;20636;-70
2023/10/05 09:49:09;;;;;;;9.07;4.00;;;;;;;15.51;50.19;100907.22;10441175;28;20226;-70
2023/10/05 09:54:12;;;;;;;7.00;3.87;;;;;;;14.20;51.76;101027.94;10459695;28;20659;-72
2023/10/05 09:59:15;;;;;;;8.00;3.97;;;;;;;14.21;52.03;101026.94;10457960;28;20724;-69
2023/10/05 10:04:39;;;;;;;12.20;5.27;;;;;;;14.12;52.09;101068.38;10455432;28;20267;-70
2023/10/05 10:09:47;;;;;;;7.73;3.77;;;;;;;14.92;51.22;100964.75;10465805;28;20233;-70
2023/10/05 10:14:50;;;;;;;7.00;4.20;;;;;;;15.82;49.84;100910.69;10455277;28;20313;-70
2023/10/05 10:19:55;;;;;;;9.93;4.30;;;;;;;14.93;51.10;100977.22;10462162;28;20312;-70
2023/10/05 10:24:57;;;;;;;8.40;4.53;;;;;;;14.97;50.65;100991.16;10461495;28;20228;-70
2023/10/05 10:30:01;;;;;;;7.77;4.43;;;;;;;14.62;51.58;101023.09;10457067;28;20430;-69
2023/10/05 10:35:26;;;;;;;7.77;4.53;;;;;;;14.74;50.90;100993.84;10459789;28;20240;-70
2023/10/05 10:40:27;;;;;;;7.83;3.90;;;;;;;15.20;50.00;100963.25;10454895;28;20685;-70
2023/10/05 10:45:34;;;;;;;7.27;3.90;;;;;;;14.94;50.27;100995.03;10456277;28;20717;-70
2023/10/05 10:50:38;;;;;;;8.57;3.80;;;;;;;15.37;50.28;100974.69;10459139;28;20231;-70
2023/10/05 10:55:46;;;;;;;8.23;3.40;;;;;;;14.99;51.03;100994.50;10459011;28;20314;-70
2023/10/05 11:06:16;;;;;;;9.47;3.87;;;;;;;13.84;53.10;100952.28;10421954;27;20363;-69
2023/10/05 11:11:23;;;;;;;11.43;4.40;;;;;;;14.61;51.83;100959.47;10349993;28;20290;-69
2023/10/05 11:16:49;;;;;;;9.07;4.37;;;;;;;14.68;51.92;100930.78;10401106;28;20734;-69
2023/10/05 11:21:51;;;;;;;11.00;3.83;;;;;;;14.37;53.08;100861.75;10370361;28;20232;-69
2023/10/05 11:32:21;;;;;;;8.83;3.77;;;;;;;15.04;50.95;100903.13;10364351;28;20286;-68
2023/10/05 11:37:40;;;;;;;9.77;3.93;;;;;;;15.44;50.37;100843.47;10323439;28;20232;-69
2023/10/05 11:42:42;;;;;;;9.83;4.07;;;;;;;15.67;50.00;100883.78;10364304;28;20352;-69
2023/10/05 11:47:54;;;;;;;6.87;3.97;;;;;;;14.90;48.69;100929.06;10336787;28;20324;-69
2023/10/05 11:52:55;;;;;;;6.30;3.60;;;;;;;15.77;47.72;100980.59;10370948;28;20238;-68
2023/10/05 11:57:57;;;;;;;10.20;4.33;;;;;;;15.61;47.31;100968.19;10336054;28;20274;-70
2023/10/05 12:02:59;;;;;;;7.80;4.03;;;;;;;14.85;49.23;100949.50;10402542;28;20248;-70
2023/10/05 12:08:00;;;;;;;8.47;3.50;;;;;;;15.21;48.92;100981.13;10329054;28;20751;-71
2023/10/05 12:13:02;;;;;;;8.33;4.67;;;;;;;15.68;48.11;100917.81;10369359;28;20734;-70
2023/10/05 12:18:12;;;;;;;7.70;3.87;;;;;;;15.77;48.10;100868.09;10340157;28;20240;-70
2023/10/05 12:23:15;;;;;;;8.60;4.43;;;;;;;16.22;46.69;100887.59;10406555;28;20785;-70
2023/10/05 12:28:23;;;;;;;7.47;3.30;;;;;;;15.24;47.31;100954.63;10408009;28;20841;-70
2023/10/05 12:33:25;;;;;;;7.47;3.73;;;;;;;15.18;47.49;100976.09;10432031;28;20221;-70
2023/10/05 12:38:26;;;;;;;7.20;3.83;;;;;;;15.15;47.96;100934.19;10421832;28;20215;-69
2023/10/05 12:43:29;;;;;;;8.60;3.57;;;;;;;15.58;47.52;100885.75;10419248;28;20252;-70
2023/10/05 12:48:30;;;;;;;7.20;3.97;;;;;;;14.99;48.79;100955.94;10420863;28;20293;-70
2023/10/05 12:53:33;;;;;;;8.63;3.93;;;;;;;15.27;48.30;100950.72;10421838;28;20246;-70
2023/10/05 12:58:35;;;;;;;10.13;3.90;;;;;;;15.37;48.86;100888.38;10419160;28;20600;-69
2023/10/05 13:03:36;;;;;;;12.43;4.33;;;;;;;14.09;50.44;100970.97;10438689;28;20240;-69
2023/10/05 13:08:43;;;;;;;8.23;3.47;;;;;;;14.87;49.06;100926.72;10417090;28;20266;-69
2023/10/05 13:13:45;;;;;;;6.33;3.53;;;;;;;15.60;48.20;100910.69;10426761;28;20312;-71
2023/10/05 13:18:50;;;;;;;7.37;3.27;;;;;;;15.65;48.31;100881.25;10415000;28;20231;-70
2023/10/05 13:23:54;;;;;;;6.73;3.60;;;;;;;15.92;48.22;100867.19;10417287;28;20238;-71
2023/10/05 13:28:59;;;;;;;11.03;4.30;;;;;;;15.33;48.87;100921.16;10438032;28;20236;-71
2023/10/05 13:34:03;;;;;;;6.90;3.43;;;;;;;15.83;48.44;100869.19;10415662;28;20232;-70
2023/10/05 13:39:20;;;;;;;6.87;3.50;;;;;;;16.30;47.20;100886.66;10419311;28;20339;-70
2023/10/05 13:44:22;;;;;;;7.33;3.50;;;;;;;15.16;48.78;100954.72;10417545;28;20486;-71
2023/10/05 13:49:28;;;;;;;9.00;4.10;;;;;;;15.70;48.71;100884.22;10418048;28;20335;-71
2023/10/05 13:54:30;;;;;;;6.70;2.93;;;;;;;15.98;47.91;100871.84;10415128;28;20247;-69
2023/10/05 13:59:32;;;;;;;8.47;3.93;;;;;;;15.83;48.22;100861.94;10418869;28;20595;-69
2023/10/05 14:04:38;;;;;;;8.30;3.67;;;;;;;15.32;49.15;100868.22;10417008;28;20233;-69
2023/10/05 14:09:47;;;;;;;10.77;4.20;;;;;;;15.40;49.21;100823.28;10414299;28;20235;-68
2023/10/05 14:14:49;;;;;;;6.70;3.63;;;;;;;15.20;49.92;100834.69;10414334;28;20499;-68
2023/10/05 14:19:51;;;;;;;10.43;3.97;;;;;;;15.22;49.65;100829.09;10415316;28;20708;-68
2023/10/05 14:24:53;;;;;;;8.90;4.07;;;;;;;15.05;49.54;100852.75;10411978;28;20289;-69
2023/10/05 14:29:55;;;;;;;7.93;3.70;;;;;;;15.48;49.15;100785.41;10414699;28;20235;-70
2023/10/05 14:35:02;;;;;;;7.83;3.40;;;;;;;14.86;49.37;100854.16;10406968;28;20399;-68
2023/10/05 14:40:05;;;;;;;7.40;3.43;;;;;;;15.61;49.00;100780.16;10412849;28;20225;-67
2023/10/05 14:45:08;;;;;;;7.37;3.73;;;;;;;14.53;50.24;100909.22;10410812;28;20263;-70
2023/10/05 14:50:13;;;;;;;5.80;3.47;;;;;;;15.02;49.63;100851.28;10428872;28;20225;-69
2023/10/05 14:55:17;;;;;;;7.73;3.63;;;;;;;14.97;49.27;100885.22;10416219;28;20474;-67
2023/10/05 15:00:18;;;;;;;7.47;3.80;;;;;;;15.82;48.38;100805.44;10404078;28;20729;-67
2023/10/05 15:05:20;;;;;;;6.87;3.33;;;;;;;15.24;49.25;100910.66;10411377;28;20417;-68
2023/10/05 15:10:24;;;;;;;7.43;3.67;;;;;;;15.65;48.54;100869.63;10395959;28;20686;-68
2023/10/05 15:15:26;;;;;;;4.57;3.17;;;;;;;16.17;47.18;100867.63;10405005;28;20233;-69
2023/10/05 15:20:28;;;;;;;6.83;3.53;;;;;;;15.39;48.35;100946.50;10411029;28;20298;-69
2023/10/05 15:25:30;;;;;;;6.53;4.00;;;;;;;15.47;48.65;100854.72;10409618;28;20670;-69
2023/10/05 15:30:33;;;;;;;11.20;4.07;;;;;;;15.75;47.99;100874.72;10408516;28;20501;-68
2023/10/05 15:35:35;;;;;;;13.73;3.93;;;;;;;15.81;47.75;100876.66;10400703;28;20327;-69
2023/10/05 15:40:37;;;;;;;9.47;3.80;;;;;;;16.26;47.51;100812.47;10414840;28;20375;-67
2023/10/05 15:45:40;;;;;;;8.43;4.03;;;;;;;16.18;47.57;100807.19;10413834;28;20231;-68
2023/10/05 15:50:43;;;;;;;7.93;3.60;;;;;;;16.04;47.51;100862.94;10419605;28;20334;-69
2023/10/05 15:55:45;;;;;;;8.93;3.67;;;;;;;15.77;47.96;100864.56;10435038;28;20323;-69
2023/10/05 16:00:47;;;;;;;8.33;3.83;;;;;;;16.41;46.94;100836.66;10455853;28;20232;-69
2023/10/05 16:05:48;;;;;;;8.00;3.60;;;;;;;16.63;46.50;100845.53;10427200;28;20313;-70
2023/10/05 16:10:50;;;;;;;10.07;3.60;;;;;;;16.56;46.52;100879.78;10439286;28;20257;-69
2023/10/05 16:15:52;;;;;;;5.57;3.43;;;;;;;16.71;46.67;100869.69;10442291;28;20234;-69
2023/10/05 16:20:54;;;;;;;8.70;3.40;;;;;;;16.49;46.71;100890.53;10447545;28;20236;-70
2023/10/05 16:25:56;;;;;;;10.13;4.20;;;;;;;16.51;46.85;100880.38;10435597;28;20314;-69
2023/10/05 16:31:00;;;;;;;7.03;3.43;;;;;;;16.75;46.65;100854.75;10427229;28;20247;-69
2023/10/05 16:36:02;;;;;;;8.20;3.40;;;;;;;17.21;45.92;100844.34;10427185;28;20592;-70
2023/10/05 16:41:04;;;;;;;8.87;3.90;;;;;;;17.36;45.99;100853.16;10430358;28;20238;-69
2023/10/05 16:46:08;;;;;;;8.47;3.40;;;;;;;17.15;46.63;100870.34;10428631;28;20235;-70
2023/10/05 16:51:10;;;;;;;10.30;4.17;;;;;;;17.38;46.27;100855.63;10428247;28;20905;-70
2023/10/05 16:56:12;;;;;;;8.63;3.70;;;;;;;15.73;48.66;100946.94;10430690;28;20250;-70
2023/10/05 17:01:15;;;;;;;7.30;3.57;;;;;;;15.27;49.80;100915.66;10408554;28;20854;-71
2023/10/05 17:06:16;;;;;;;9.30;3.93;;;;;;;17.00;46.76;100813.72;10379429;28;20238;-72
2023/10/05 17:11:18;;;;;;;19.07;4.80;;;;;;;16.70;47.24;100878.00;10364208;28;20315;-68
2023/10/05 17:16:20;;;;;;;12.10;4.73;;;;;;;14.75;50.79;100896.69;10382591;28;20248;-72
2023/10/05 17:21:22;;;;;;;14.07;3.83;;;;;;;14.91;50.68;100878.69;10368109;28;20259;-73
2023/10/05 17:26:24;;;;;;;10.23;4.03;;;;;;;16.24;48.70;100777.50;10375332;28;20233;-73
2023/10/05 17:31:25;;;;;;;11.20;4.03;;;;;;;16.22;48.44;100839.00;10371023;28;20236;-71
2023/10/05 17:36:27;;;;;;;8.77;4.00;;;;;;;16.51;47.86;100809.31;10372495;28;20237;-72
2023/10/05 17:41:29;;;;;;;11.93;4.60;;;;;;;14.20;51.92;100919.44;10373977;28;20324;-71
2023/10/05 17:46:31;;;;;;;9.00;4.07;;;;;;;14.66;51.80;100763.13;10371890;28;20278;-72
2023/10/05 17:51:33;;;;;;;7.77;3.80;;;;;;;14.09;52.12;100868.72;10377361;28;20239;-71
2023/10/05 17:56:35;;;;;;;9.77;4.30;;;;;;;14.84;51.16;100759.22;10360622;28;20276;-70
2023/10/05 18:01:36;;;;;;;7.90;4.03;;;;;;;14.39;51.44;100827.38;10386180;28;20259;-71
2023/10/05 18:06:38;;;;;;;15.87;7.33;;;;;;;14.83;50.71;100796.09;10419607;28;20242;-70
2023/10/05 18:11:40;;;;;;;9.37;4.20;;;;;;;15.75;48.95;100786.50;10411330;28;20268;-71
2023/10/05 18:16:46;;;;;;;12.33;5.77;;;;;;;14.26;51.99;100829.06;10409455;28;20319;-71
2023/10/05 18:21:48;;;;;;;9.27;4.20;;;;;;;13.79;52.84;100820.19;10411674;28;20310;-71
2023/10/05 18:26:50;;;;;;;8.10;4.10;;;;;;;14.11;52.48;100799.41;10407870;28;20259;-70
2023/10/05 18:31:51;;;;;;;8.70;4.10;;;;;;;14.01;51.81;100851.59;10410533;28;20227;-71
2023/10/05 18:36:53;;;;;;;9.10;3.77;;;;;;;14.68;50.49;100835.66;10406704;28;20232;-70
2023/10/05 18:41:55;;;;;;;6.07;3.80;;;;;;;15.25;49.86;100737.03;10416646;28;20227;-70
2023/10/05 18:46:57;;;;;;;7.07;3.70;;;;;;;15.28;50.13;100815.69;10421969;28;20224;-72
2023/10/05 18:51:58;;;;;;;24.87;15.73;;;;;;;14.49;50.70;100882.81;10409716;28;20258;-72
2023/10/05 18:57:01;;;;;;;13.87;8.40;;;;;;;15.23;49.50;100803.81;10409110;28;20240;-72
2023/10/05 19:02:03;;;;;;;12.70;6.20;;;;;;;15.29;49.48;100847.03;10407377;28;20247;-72
2023/10/05 19:07:06;;;;;;;38.17;24.33;;;;;;;14.75;50.33;100826.63;10406511;28;20228;-71
2023/10/05 19:12:08;;;;;;;81.40;52.50;;;;;;;12.16;55.75;100902.03;10401674;28;20236;-70
2023/10/05 19:17:10;;;;;;;12.70;8.97;;;;;;;12.74;54.95;100783.84;10366706;28;20299;-70
2023/10/05 19:22:15;;;;;;;10.87;6.57;;;;;;;13.35;53.11;100855.78;10401495;28;20672;-70
2023/10/05 19:27:17;;;;;;;11.83;5.13;;;;;;;14.49;51.33;100781.34;10414078;28;20801;-69
2023/10/05 19:32:19;;;;;;;9.17;4.10;;;;;;;12.67;53.49;100960.94;10411122;28;20242;-69
2023/10/05 19:37:21;;;;;;;7.40;3.90;;;;;;;11.69;56.77;100866.94;10415254;28;20235;-71
2023/10/05 19:42:22;;;;;;;7.40;4.37;;;;;;;12.17;55.87;100790.19;10428552;28;20242;-69
2023/10/05 19:47:25;;;;;;;10.53;4.47;;;;;;;12.49;55.26;100813.44;10413000;28;20259;-70
2023/10/05 19:52:27;;;;;;;10.30;5.87;;;;;;;13.95;52.37;100739.31;10411253;28;20259;-69
2023/10/05 19:57:32;;;;;;;8.70;4.33;;;;;;;14.23;51.05;100814.09;10411758;28;20460;-71
2023/10/05 20:02:34;;;;;;;8.30;4.40;;;;;;;12.60;54.70;100857.03;10411158;28;20732;-69
2023/10/05 20:07:36;;;;;;;8.20;4.77;;;;;;;12.80;54.00;100876.28;10413208;28;20275;-72
2023/10/05 20:12:38;;;;;;;10.67;4.10;;;;;;;14.04;51.98;100751.66;10415933;28;20255;-68
2023/10/05 20:17:39;;;;;;;7.73;4.67;;;;;;;11.96;55.08;100917.63;10412931;28;20328;-69
2023/10/05 20:22:41;;;;;;;9.30;4.77;;;;;;;11.81;56.15;100849.53;10425305;28;20242;-70
2023/10/05 20:27:43;;;;;;;9.63;4.77;;;;;;;11.34;57.30;100861.66;10414328;28;20250;-69
2023/10/05 20:32:46;;;;;;;7.90;4.30;;;;;;;12.10;56.13;100771.25;10406921;28;20240;-69
2023/10/05 20:37:47;;;;;;;6.70;4.47;;;;;;;12.29;54.42;100896.16;10389334;28;20228;-69
2023/10/05 20:42:49;;;;;;;7.90;5.70;;;;;;;13.27;52.04;100770.59;10412394;28;20283;-69
2023/10/05 20:47:51;;;;;;;8.37;6.77;;;;;;;13.24;52.04;100819.34;10417562;28;20305;-70
2023/10/05 20:52:54;;;;;;;13.27;6.67;;;;;;;11.51;55.17;100945.63;10419176;28;20661;-70
2023/10/05 20:57:56;;;;;;;8.10;5.50;;;;;;;13.17;52.85;100829.97;10417102;28;20234;-71
2023/10/05 21:02:57;;;;;;;10.67;6.10;;;;;;;12.24;55.22;100809.13;10414694;28;20248;-70
2023/10/05 21:08:01;;;;;;;10.67;5.63;;;;;;;12.72;54.89;100794.75;10437379;28;20332;-70
2023/10/05 21:13:03;;;;;;;9.73;5.37;;;;;;;14.19;52.03;100735.56;10420915;28;20262;-70
2023/10/05 21:18:05;;;;;;;8.80;5.00;;;;;;;14.38;51.67;100779.09;10421800;28;20232;-68
2023/10/05 21:23:07;;;;;;;9.30;4.70;;;;;;;13.73;52.30;100878.19;10398789;28;20243;-68
2023/10/05 21:28:09;;;;;;;6.90;4.50;;;;;;;14.27;52.12;100777.69;10386007;28;20228;-68
2023/10/05 21:33:11;;;;;;;8.90;4.50;;;;;;;13.73;51.90;100915.03;10424107;28;20750;-69
2023/10/05 21:38:13;;;;;;;8.17;4.27;;;;;;;14.04;51.40;100842.34;10411677;28;20239;-70
2023/10/05 21:43:15;;;;;;;7.70;4.60;;;;;;;13.11;52.85;100927.41;10399924;28;20484;-70
2023/10/05 21:48:16;;;;;;;7.60;4.67;;;;;;;13.58;51.47;100863.84;10421024;28;20207;-68
2023/10/05 21:53:18;;;;;;;7.93;4.50;;;;;;;13.31;53.10;100816.81;10437345;28;20256;-69
2023/10/05 21:58:20;;;;;;;6.57;4.23;;;;;;;11.88;56.26;100866.66;10408858;28;21007;-71
2023/10/05 22:03:22;;;;;;;9.87;4.50;;;;;;;11.75;55.36;100949.44;10419992;28;20344;-68
2023/10/05 22:08:24;;;;;;;9.73;4.60;;;;;;;11.05;57.79;100903.09;10417402;28;20290;-69
2023/10/05 22:13:26;;;;;;;8.27;4.37;;;;;;;11.07;57.76;100879.66;10422470;28;20261;-69
2023/10/05 22:18:29;;;;;;;6.87;4.60;;;;;;;11.10;57.45;100873.13;10430150;28;20216;-69
2023/10/05 22:23:31;;;;;;;7.00;4.37;;;;;;;11.02;57.00;100900.72;10398540;28;20228;-69
2023/10/05 22:28:34;;;;;;;6.23;4.00;;;;;;;10.18;58.50;100939.59;10415193;28;23138;-69
2023/10/05 22:33:35;;;;;;;9.50;5.13;;;;;;;10.38;58.97;100897.47;10418047;28;20336;-71
2023/10/05 22:38:37;;;;;;;9.83;5.07;;;;;;;11.03;58.41;100784.53;10430530;28;20244;-71
2023/10/05 22:43:45;;;;;;;7.27;4.23;;;;;;;10.82;57.14;100835.03;10408872;28;20240;-69
2023/10/05 22:48:47;;;;;;;5.47;4.30;;;;;;;11.57;56.37;100788.66;10416704;28;20231;-69
2023/10/05 22:53:49;;;;;;;4.80;4.00;;;;;;;12.10;53.39;100770.41;10425146;28;20741;-70
2023/10/05 22:58:50;;;;;;;5.37;4.30;;;;;;;11.31;53.69;100942.38;10426750;28;20331;-70
2023/10/05 23:03:52;;;;;;;7.23;4.57;;;;;;;9.67;59.09;100892.94;10397269;28;20330;-70
2023/10/05 23:08:54;;;;;;;6.93;3.90;;;;;;;9.79;60.34;100865.03;10392592;28;20287;-71
2023/10/05 23:13:58;;;;;;;5.67;4.10;;;;;;;10.38;58.90;100827.03;10406879;28;20252;-69
2023/10/05 23:19:00;;;;;;;6.93;4.37;;;;;;;12.16;54.98;100737.50;10409426;28;20251;-69
2023/10/05 23:24:03;;;;;;;7.93;4.07;;;;;;;10.29;58.51;100944.72;10404737;28;20228;-70
2023/10/05 23:29:07;;;;;;;6.30;4.03;;;;;;;10.04;59.64;100883.97;10393784;28;20602;-71
2023/10/05 23:34:12;;;;;;;8.00;4.33;;;;;;;10.10;59.07;100886.88;10391998;28;20235;-69
2023/10/05 23:39:21;;;;;;;8.30;4.63;;;;;;;10.76;57.15;100851.72;10406928;28;20318;-70
2023/10/05 23:44:24;;;;;;;7.27;4.27;;;;;;;10.05;58.76;100929.28;10410836;28;20228;-71
2023/10/05 23:49:27;;;;;;;7.87;3.90;;;;;;;11.92;54.29;100808.97;10411617;28;20260;-71
2023/10/05 23:54:29;;;;;;;7.80;3.70;;;;;;;10.32;56.98;100951.59;10409455;28;20762;-70
2023/10/05 23:59:31;;;;;;;5.60;3.57;;;;;;;10.52;55.95;100942.38;10403408;28;20336;-70
